सभी
Iron Bridge Mine Airport (Port Hedland, WA) IBM मौसम
|
Port Hedland, WA (IBM / YIBO)
स्वच्छ आकाश
तेज हवाएं |
|
31 °C |
IBM Terminal Area Forecast
| Date | Time (AWST) | Flight Rules | Wind Dir. | Speed | Type | Height AGL (ft) | Visibility | Remarks | ||||||
|---|---|---|---|---|---|---|---|---|---|---|---|---|---|---|
| 04-मई | 21:00 | VFR | 130° | 13 kt | Clouds and Visibility are OK | >= 6 miles | ||||||||
| 04-मई | 20:00 | VFR | 130° | 13 kt | Clouds and Visibility are OK | >= 6 miles | ||||||||
| 04-मई | 19:00 | VFR | 130° | 13 kt | Clouds and Visibility are OK | >= 6 miles | ||||||||
| 04-मई | 18:00 | VFR | 130° | 13 kt | Clouds and Visibility are OK | >= 6 miles | ||||||||
| 04-मई | 17:00 | VFR | 130° | 13 kt | Clouds and Visibility are OK | >= 6 miles | ||||||||
| 04-मई | 16:00 | VFR | 130° | 13 kt | Clouds and Visibility are OK | >= 6 miles | ||||||||
| 04-मई | 15:00 | VFR | 130° | 13 kt | Clouds and Visibility are OK | >= 6 miles | ||||||||
| 04-मई | 14:00 | VFR | 130° | 13 kt | Clouds and Visibility are OK | >= 6 miles | ||||||||
Recent IBM METAR history
| Date | Time (AWST) | Flight Rules | Wind Dir. | Speed | Type | Height AGL (ft) | Visibility | Temp (°C) | Temp (°F) | Dew Point (°C) | Dew Point (°F) | Rel. Humid. | Pressure | Density Altitude | Remarks |
|---|---|---|---|---|---|---|---|---|---|---|---|---|---|---|---|
| 04-मई | 14:00 | VFR | 140° | 13 kt | 10000 meters | 31° | 87° | 1° | 33° | 15% | 1016 mb | 2,495 ft | |||
| 04-मई | 13:00 | VFR | 150° | 12 kt | 10000 meters | 30° | 86° | 0° | 32° | 14% | 1017 mb | 2,345 ft | |||
| 04-मई | 12:00 | VFR | 130° | 13 kt | 10000 meters | 29° | 84° | -1° | 30° | 14% | 1018 mb | 2,195 ft | |||
| 04-मई | 11:00 | VFR | 130° | 15 kt | 10000 meters | 27° | 80° | -1° | 30° | 16% | 1019 mb | 1,926 ft | |||
| 04-मई | 10:00 | VFR | 130° | 15 kt | 10000 meters | 26° | 78° | -1° | 30° | 17% | 1019 mb | 1,806 ft | |||
| 04-मई | 09:00 | VFR | 130° | 15 kt | 10000 meters | 24° | 75° | -1° | 30° | 19% | 1019 mb | 1,566 ft | |||
| 04-मई | 08:00 | VFR | 130° | 16 kt | 10000 meters | 23° | 73° | -2° | 28° | 19% | 1019 mb | 1,446 ft | |||
| 04-मई | 07:00 | VFR | 150° | 10 kt | 10000 meters | 21° | 69° | -4° | 24° | 18% | 1019 mb | 1,206 ft | |||
| 04-मई | 06:00 | VFR | 150° | 10 kt | 10000 meters | 21° | 69° | -4° | 24° | 18% | 1018 mb | 1,235 ft | |||
| 04-मई | 05:00 | VFR | 150° | 9 kt | 10000 meters | 21° | 69° | -4° | 24° | 18% | 1018 mb | 1,235 ft | |||
| 04-मई | 04:00 | VFR | 120° | 9 kt | 10000 meters | 22° | 71° | -4° | 24° | 17% | 1017 mb | 1,385 ft | |||
| 04-मई | 03:00 | VFR | 120° | 9 kt | 10000 meters | 23° | 73° | -3° | 26° | 17% | 1017 mb | 1,505 ft | |||
| 04-मई | 02:00 | VFR | 120° | 8 kt | 10000 meters | 23° | 73° | -3° | 26° | 17% | 1017 mb | 1,505 ft | |||
| 04-मई | 01:00 | VFR | 110° | 10 kt | 10000 meters | 24° | 75° | -2° | 28° | 18% | 1017 mb | 1,625 ft | |||
| 04-मई | 00:00 | VFR | 110° | 9 kt | 10000 meters | 25° | 77° | 0° | 32° | 19% | 1017 mb | 1,745 ft | |||
| 03-मई | 23:00 | VFR | 100° | 9 kt | 10000 meters | 26° | 78° | 1° | 33° | 20% | 1017 mb | 1,865 ft | |||
| 03-मई | 22:00 | VFR | 100° | 8 kt | 10000 meters | 26° | 78° | 2° | 35° | 21% | 1017 mb | 1,865 ft | |||
| 03-मई | 21:00 | VFR | 100° | 6 kt | 10000 meters | 26° | 78° | 3° | 37° | 23% | 1016 mb | 1,895 ft | |||
| 03-मई | 20:00 | VFR | 120° | 5 kt | 10000 meters | 27° | 80° | 3° | 37° | 21% | 1016 mb | 2,015 ft | |||
| 03-मई | 19:00 | VFR | 110° | 5 kt | 10000 meters | 27° | 80° | 3° | 37° | 21% | 1015 mb | 2,044 ft | |||
| 03-मई | 18:00 | VFR | 100° | 5 kt | 10000 meters | 29° | 84° | 3° | 37° | 19% | 1014 mb | 2,314 ft | |||
| 03-मई | 17:00 | VFR | 110° | 7 kt | 10000 meters | 31° | 87° | 3° | 37° | 17% | 1013 mb | 2,583 ft | |||
| 03-मई | 16:00 | VFR | 110° | 7 kt | 10000 meters | 32° | 89° | 4° | 39° | 17% | 1013 mb | 2,703 ft | |||
| 03-मई | 15:00 | VFR | 110° | 6 kt | 10000 meters | 32° | 89° | 2° | 35° | 15% | 1013 mb | 2,703 ft |
लॉगिन
| Your browser is unsupported. अपना ब्राऊजर अपग्रेड करें |
